createdAt,value
2023-02-09T10:06:47.207Z,1306.00
2023-02-09T10:07:47.983Z,1326.00
2023-02-09T10:08:47.991Z,1295.00
2023-02-09T10:09:47.957Z,1270.00
2023-02-09T10:10:48.176Z,1284.00
2023-02-09T10:11:48.035Z,1278.00
2023-02-09T10:12:48.168Z,1313.00
2023-02-09T10:13:47.946Z,1339.00
2023-02-09T10:14:47.918Z,1341.00
2023-02-09T10:15:48.097Z,1341.00
2023-02-09T10:16:48.108Z,1304.00
2023-02-09T10:17:48.257Z,1336.00
2023-02-09T10:18:47.884Z,1360.00
2023-02-09T10:19:47.866Z,1377.00
2023-02-09T10:20:47.881Z,1381.00
2023-02-09T10:21:47.851Z,1395.00
2023-02-09T10:22:48.219Z,1406.00
2023-02-09T10:23:47.849Z,1419.00
2023-02-09T10:24:47.822Z,1434.00
2023-02-09T10:25:48.106Z,1453.00
2023-02-09T10:26:47.805Z,1460.00
2023-02-09T10:27:48.179Z,1468.00
2023-02-09T10:28:47.793Z,1472.00
2023-02-09T10:29:47.774Z,1479.00
2023-02-09T10:30:47.938Z,1482.00
2023-02-09T10:31:47.950Z,1490.00
2023-02-09T10:32:48.176Z,1536.00
2023-02-09T10:33:47.747Z,1523.00
2023-02-09T10:34:47.753Z,1534.00
2023-02-09T10:35:48.482Z,1554.00
2023-02-09T10:36:48.695Z,1561.00
2023-02-09T10:37:48.197Z,1598.00
2023-02-09T10:38:47.761Z,1623.00
2023-02-09T10:39:47.766Z,1629.00
2023-02-09T10:40:47.702Z,1632.00
2023-02-09T10:41:47.684Z,1631.00
2023-02-09T10:42:47.682Z,1627.00
2023-02-09T10:43:47.747Z,1628.00
2023-02-09T10:44:47.649Z,1629.00
2023-02-09T10:45:48.065Z,1633.00
2023-02-09T10:46:48.196Z,1630.00
2023-02-09T10:47:47.612Z,1631.00
2023-02-09T10:48:47.610Z,1626.00
2023-02-09T10:49:47.630Z,1627.00
2023-02-09T10:50:47.634Z,1628.00
2023-02-09T10:51:46.767Z,1623.00
2023-02-09T10:52:47.579Z,1624.00
2023-02-09T10:53:49.170Z,1621.00
2023-02-09T10:54:47.708Z,1618.00
2023-02-09T10:55:48.067Z,1613.00
2023-02-09T10:56:48.191Z,1610.00
2023-02-09T10:57:47.652Z,1616.00
2023-02-09T10:58:48.191Z,1623.00
2023-02-09T10:59:48.173Z,1621.00
2023-02-09T11:00:47.639Z,1618.00
2023-02-09T11:01:47.732Z,1615.00
2023-02-09T11:02:47.633Z,1613.00
2023-02-09T11:03:47.606Z,1613.00
2023-02-09T11:04:47.734Z,1609.00
2023-02-09T11:05:48.048Z,1603.00
2023-02-09T11:06:47.723Z,1601.00
2023-02-09T11:07:47.566Z,1601.00
2023-02-09T11:08:47.555Z,1600.00
2023-02-09T11:09:47.548Z,1600.00
2023-02-09T11:10:47.558Z,1596.00
2023-02-09T11:11:47.693Z,1595.00
2023-02-09T11:12:47.530Z,1590.00
2023-02-09T11:13:47.508Z,1587.00
2023-02-09T11:14:47.590Z,1577.00
2023-02-09T11:15:47.932Z,1589.00
2023-02-09T11:16:47.732Z,1604.00
2023-02-09T11:17:47.474Z,1623.00
2023-02-09T11:18:47.695Z,1646.00
2023-02-09T11:19:47.463Z,1677.00
2023-02-09T11:20:47.449Z,1719.00
2023-02-09T11:21:47.740Z,1733.00
2023-02-09T11:22:47.716Z,1749.00
2023-02-09T11:23:47.432Z,1768.00
2023-02-09T11:24:47.420Z,1791.00
2023-02-09T11:26:47.758Z,1849.00
2023-02-09T11:27:47.731Z,1858.00
2023-02-09T11:28:47.386Z,1865.00
2023-02-09T11:30:47.816Z,1895.00
2023-02-09T11:31:47.392Z,1859.00
2023-02-09T11:32:47.340Z,1847.00
2023-02-09T11:33:47.334Z,1884.00
2023-02-09T11:34:47.327Z,1918.00
2023-02-09T11:35:47.324Z,1940.00
2023-02-09T11:36:47.306Z,1953.00
2023-02-09T11:37:47.725Z,1996.00
2023-02-09T11:38:47.301Z,2011.00
2023-02-09T11:39:47.283Z,2028.00
2023-02-09T11:40:47.626Z,2039.00
2023-02-09T11:41:47.259Z,2048.00
2023-02-09T11:42:47.277Z,2058.00
2023-02-09T11:43:47.237Z,2101.00
2023-02-09T11:44:47.707Z,2114.00
2023-02-09T11:45:47.230Z,2122.00
2023-02-09T11:46:47.310Z,2161.00
2023-02-09T11:47:47.234Z,2183.00
2023-02-09T11:48:47.200Z,2192.00
2023-02-09T11:49:47.184Z,2205.00
2023-02-09T11:50:47.539Z,2226.00
2023-02-09T11:51:47.168Z,2237.00
2023-02-09T11:52:47.229Z,2244.00
2023-02-09T11:53:47.152Z,2249.00
2023-02-09T11:54:47.148Z,2258.00
2023-02-09T11:55:47.132Z,2270.00
2023-02-09T11:56:47.118Z,2289.00
2023-02-09T11:57:47.215Z,2287.00
2023-02-09T11:58:47.202Z,1707.00
2023-02-09T11:59:47.102Z,1474.00
2023-02-09T12:00:56.034Z,1442.00
2023-02-09T12:01:47.118Z,1038.00
2023-02-09T12:02:47.219Z,1043.00
2023-02-09T12:03:47.058Z,994.00
2023-02-09T12:04:47.074Z,890.00
2023-02-09T12:05:47.040Z,1039.00
2023-02-09T12:06:47.076Z,980.00
2023-02-09T12:07:47.209Z,943.00
2023-02-09T12:08:47.014Z,853.00
2023-02-09T12:09:47.000Z,784.00
2023-02-09T12:10:47.321Z,776.00
2023-02-09T12:11:46.988Z,639.00
2023-02-09T12:12:47.214Z,550.00
2023-02-09T12:13:47.872Z,522.00
2023-02-09T12:14:47.236Z,500.00
2023-02-09T12:15:47.072Z,541.00
2023-02-09T12:16:46.931Z,557.00
2023-02-09T12:17:47.719Z,613.00
2023-02-09T12:18:46.930Z,599.00
2023-02-09T12:19:48.452Z,619.00
2023-02-09T12:20:50.095Z,630.00
2023-02-09T12:21:46.890Z,637.00
2023-02-09T12:22:46.911Z,641.00
2023-02-09T12:23:46.869Z,665.00
2023-02-09T12:24:47.216Z,666.00
2023-02-09T12:25:46.853Z,649.00
2023-02-09T12:26:46.845Z,655.00
2023-02-09T12:27:46.835Z,624.00
2023-02-09T12:28:46.892Z,639.00
2023-02-09T12:29:46.815Z,617.00
2023-02-09T12:30:47.205Z,582.00
2023-02-09T12:31:46.868Z,577.00
2023-02-09T12:32:47.217Z,627.00
2023-02-09T12:33:46.770Z,641.00
2023-02-09T12:34:47.223Z,654.00
2023-02-09T12:35:46.759Z,636.00
2023-02-09T12:36:47.235Z,611.00
2023-02-09T12:37:46.736Z,623.00
2023-02-09T12:38:52.307Z,604.00
2023-02-09T12:39:46.720Z,605.00
2023-02-09T12:40:47.021Z,607.00
2023-02-09T12:41:46.715Z,628.00
2023-02-09T12:42:46.746Z,640.00
2023-02-09T12:43:46.694Z,650.00
2023-02-09T12:44:46.715Z,649.00
2023-02-09T12:45:47.036Z,668.00
2023-02-09T12:46:46.765Z,593.00
2023-02-09T12:47:46.649Z,609.00
2023-02-09T12:48:46.628Z,649.00
2023-02-09T12:49:46.750Z,593.00
2023-02-09T12:50:46.618Z,573.00
2023-02-09T12:51:46.678Z,582.00
2023-02-09T12:52:46.597Z,593.00
2023-02-09T12:53:46.595Z,655.00
2023-02-09T12:54:46.585Z,633.00
2023-02-09T12:55:46.991Z,627.00
2023-02-09T12:56:46.576Z,623.00
2023-02-09T12:57:47.573Z,629.00
2023-02-09T12:58:46.794Z,614.00
2023-02-09T12:59:46.534Z,629.00
2023-02-09T13:00:46.543Z,634.00
2023-02-09T13:01:46.510Z,630.00
2023-02-09T13:02:46.524Z,635.00
2023-02-09T13:03:46.795Z,628.00
2023-02-09T13:04:46.504Z,626.00
2023-02-09T13:05:46.825Z,652.00
2023-02-09T13:06:46.469Z,686.00
2023-02-09T13:07:46.465Z,702.00
2023-02-09T13:08:46.723Z,862.00
2023-02-09T13:09:46.725Z,920.00
2023-02-09T13:10:46.438Z,1009.00
2023-02-09T13:11:46.428Z,922.00
2023-02-09T13:12:46.756Z,987.00
2023-02-09T13:13:46.406Z,792.00
2023-02-09T13:14:46.401Z,733.00
2023-02-09T13:15:46.658Z,673.00
2023-02-09T13:16:46.554Z,678.00
2023-02-09T13:17:46.382Z,675.00
2023-02-09T13:18:46.755Z,671.00
2023-02-09T13:19:48.166Z,663.00
2023-02-09T13:20:46.350Z,658.00
2023-02-09T13:21:46.346Z,639.00
2023-02-09T13:22:46.334Z,635.00
2023-02-09T13:23:46.730Z,619.00
2023-02-09T13:24:46.310Z,605.00
2023-02-09T13:25:46.629Z,575.00
2023-02-09T13:26:46.290Z,604.00
2023-02-09T13:27:46.276Z,609.00
2023-02-09T13:28:46.732Z,627.00
2023-02-09T13:29:46.280Z,637.00
2023-02-09T13:30:46.285Z,611.00
2023-02-09T13:31:46.331Z,625.00
2023-02-09T13:32:46.294Z,630.00
2023-02-09T13:33:46.321Z,601.00
2023-02-09T13:34:46.267Z,646.00
2023-02-09T13:35:46.497Z,650.00
2023-02-09T13:36:46.244Z,649.00
2023-02-09T13:37:46.195Z,625.00
2023-02-09T13:38:46.206Z,587.00
2023-02-09T13:39:46.175Z,599.00
2023-02-09T13:40:46.164Z,614.00
2023-02-09T13:41:46.183Z,635.00
2023-02-09T13:42:46.136Z,629.00
2023-02-09T13:43:46.239Z,627.00
2023-02-09T13:44:46.158Z,620.00
2023-02-09T13:45:46.558Z,656.00
2023-02-09T13:46:46.111Z,652.00
2023-02-09T13:47:46.104Z,672.00
2023-02-09T13:48:46.286Z,680.00
2023-02-09T13:49:46.082Z,632.00
2023-02-09T13:50:46.104Z,643.00
2023-02-09T13:51:46.101Z,664.00
2023-02-09T13:52:46.077Z,669.00
2023-02-09T13:53:46.291Z,670.00
2023-02-09T13:54:46.027Z,674.00
2023-02-09T13:55:46.574Z,669.00
2023-02-09T13:56:46.009Z,675.00
2023-02-09T13:57:46.052Z,677.00
2023-02-09T13:58:45.987Z,687.00
2023-02-09T13:59:46.252Z,693.00
2023-02-09T14:00:45.969Z,689.00
2023-02-09T14:01:45.960Z,688.00
2023-02-09T14:02:46.033Z,682.00
2023-02-09T14:03:57.376Z,681.00
2023-02-09T14:04:46.246Z,688.00
2023-02-09T14:05:46.269Z,691.00
2023-02-09T14:06:46.308Z,689.00
2023-02-09T14:07:46.321Z,679.00
2023-02-09T14:08:45.899Z,680.00
2023-02-09T14:09:45.895Z,682.00
2023-02-09T14:10:45.871Z,680.00
2023-02-09T14:11:45.865Z,684.00
2023-02-09T14:12:46.339Z,690.00
2023-02-09T14:13:45.849Z,682.00
2023-02-09T14:14:45.838Z,681.00
2023-02-09T14:15:46.143Z,688.00
2023-02-09T14:16:53.377Z,683.00
2023-02-09T14:17:46.280Z,684.00
2023-02-09T14:18:45.824Z,691.00
2023-02-09T14:19:45.841Z,787.00
2023-02-09T14:20:45.773Z,827.00
2023-02-09T14:21:45.769Z,884.00
2023-02-09T14:22:46.267Z,900.00
2023-02-09T14:23:45.752Z,937.00
2023-02-09T14:24:45.756Z,967.00
2023-02-09T14:25:46.169Z,983.00
2023-02-09T14:26:45.725Z,1000.00
2023-02-09T14:27:45.719Z,1029.00
2023-02-09T14:28:45.724Z,1041.00
2023-02-09T14:29:45.708Z,1062.00
2023-02-09T14:30:45.738Z,1087.00
2023-02-09T14:31:45.672Z,1104.00
2023-02-09T14:32:45.687Z,1176.00
2023-02-09T14:33:45.659Z,1183.00
2023-02-09T14:34:45.758Z,1203.00
2023-02-09T14:35:45.893Z,1211.00
2023-02-09T14:36:45.627Z,1221.00
2023-02-09T14:37:45.616Z,1252.00
2023-02-09T14:38:45.627Z,1286.00
2023-02-09T14:39:45.608Z,1301.00
2023-02-09T14:40:45.604Z,1322.00
2023-02-09T14:41:45.585Z,1342.00
2023-02-09T14:42:45.576Z,1353.00
2023-02-09T14:43:45.594Z,1368.00
2023-02-09T14:44:45.764Z,1388.00
2023-02-09T14:45:45.913Z,1409.00
2023-02-09T14:46:45.541Z,1423.00
2023-02-09T14:47:45.530Z,1445.00
2023-02-09T14:48:45.518Z,1456.00
2023-02-09T14:49:45.756Z,1493.00
2023-02-09T14:50:45.516Z,1512.00
2023-02-09T14:51:45.499Z,1532.00
2023-02-09T14:52:47.067Z,1551.00
2023-02-09T14:53:45.716Z,1566.00
2023-02-09T14:54:45.721Z,1581.00
2023-02-09T14:55:46.155Z,1602.00
2023-02-09T14:56:45.683Z,1619.00
2023-02-09T14:57:45.672Z,1650.00
2023-02-09T14:58:45.672Z,1655.00
2023-02-09T14:59:45.675Z,1662.00
2023-02-09T15:00:45.771Z,1673.00
2023-02-09T15:01:45.713Z,1688.00
2023-02-09T15:02:45.722Z,1705.00
2023-02-09T15:03:45.635Z,1723.00
2023-02-09T15:04:45.608Z,1738.00
2023-02-09T15:05:46.090Z,1780.00
2023-02-09T15:06:45.600Z,1796.00
2023-02-09T15:07:45.586Z,1808.00
2023-02-09T15:08:45.601Z,1819.00
2023-02-09T15:09:46.270Z,1835.00
2023-02-09T15:10:45.597Z,1846.00
2023-02-09T15:11:45.562Z,1865.00
2023-02-09T15:12:45.541Z,1888.00
2023-02-09T15:13:45.772Z,1893.00
2023-02-09T15:14:45.550Z,1905.00
2023-02-09T15:15:45.894Z,1918.00
2023-02-09T15:16:45.497Z,1936.00
2023-02-09T15:17:45.497Z,1964.00
2023-02-09T15:18:45.777Z,1977.00
2023-02-09T15:19:45.473Z,1991.00
2023-02-09T15:20:45.783Z,2006.00
2023-02-09T15:21:50.678Z,2029.00
2023-02-09T15:22:45.463Z,2052.00
2023-02-09T15:23:45.441Z,2060.00
2023-02-09T15:24:45.435Z,2075.00
2023-02-09T15:25:46.168Z,2086.00
2023-02-09T15:26:45.431Z,2091.00
2023-02-09T15:27:51.247Z,2097.00
2023-02-09T15:28:45.387Z,2108.00
2023-02-09T15:29:45.394Z,2125.00
2023-02-09T15:30:46.251Z,2158.00
2023-02-09T15:31:45.421Z,2231.00
2023-02-09T15:32:45.352Z,2239.00
2023-02-09T15:33:45.349Z,1563.00
2023-02-09T15:34:46.266Z,1773.00
2023-02-09T15:35:46.105Z,2014.00
2023-02-09T15:36:45.321Z,1883.00
2023-02-09T15:37:45.319Z,1089.00
2023-02-09T15:38:45.319Z,878.00
2023-02-09T15:39:45.303Z,718.00
2023-02-09T15:40:45.922Z,802.00
2023-02-09T15:41:45.273Z,882.00
2023-02-09T15:42:45.327Z,928.00
2023-02-09T15:43:45.261Z,941.00
2023-02-09T15:44:45.278Z,1024.00
2023-02-09T15:45:45.249Z,1067.00
2023-02-09T15:46:45.288Z,1133.00
2023-02-09T15:47:45.230Z,1162.00
2023-02-09T15:48:45.199Z,1174.00
2023-02-09T15:49:45.192Z,1184.00
2023-02-09T15:50:45.476Z,1238.00
2023-02-09T15:51:45.170Z,1245.00
2023-02-09T15:52:45.164Z,1255.00
2023-02-09T15:53:45.151Z,1253.00
2023-02-09T15:54:45.172Z,1255.00
2023-02-09T15:55:45.132Z,1259.00
2023-02-09T15:56:45.130Z,1261.00
2023-02-09T15:57:45.124Z,1264.00
2023-02-09T15:58:45.139Z,1266.00
2023-02-09T15:59:45.105Z,1264.00
2023-02-09T16:00:45.574Z,1262.00
2023-02-09T16:01:45.125Z,1261.00
2023-02-09T16:02:45.165Z,1258.00
2023-02-09T16:03:45.070Z,1254.00
2023-02-09T16:04:45.061Z,1252.00
2023-02-09T16:05:45.048Z,1252.00
2023-02-09T16:06:45.279Z,1254.00
2023-02-09T16:07:45.029Z,1251.00
2023-02-09T16:08:45.019Z,1246.00
2023-02-09T16:09:45.053Z,1241.00
2023-02-09T16:10:45.393Z,1237.00
2023-02-09T16:11:45.070Z,1234.00
2023-02-09T16:12:45.136Z,1230.00
2023-02-09T16:13:44.999Z,1230.00
2023-02-09T16:14:45.007Z,1229.00
2023-02-09T16:15:44.976Z,1230.00
2023-02-09T16:16:45.003Z,1225.00
2023-02-09T16:17:44.940Z,1218.00
2023-02-09T16:18:45.102Z,1211.00
2023-02-09T16:19:44.928Z,1207.00
2023-02-09T16:20:45.244Z,1207.00
2023-02-09T16:21:44.905Z,1199.00
2023-02-09T16:22:44.894Z,1202.00
2023-02-09T16:23:44.894Z,1202.00
2023-02-09T16:24:44.877Z,1203.00
2023-02-09T16:25:45.281Z,1199.00
2023-02-09T16:26:44.857Z,1195.00
2023-02-09T16:27:44.850Z,1192.00
2023-02-09T16:28:44.851Z,1188.00
2023-02-09T16:29:44.839Z,1186.00
2023-02-09T16:30:45.622Z,1184.00
2023-02-09T16:31:44.869Z,1178.00
2023-02-09T16:32:45.786Z,1167.00
2023-02-09T16:33:44.800Z,1165.00
2023-02-09T16:34:44.788Z,1162.00
2023-02-09T16:35:45.180Z,1158.00
2023-02-09T16:36:46.374Z,1154.00
2023-02-09T16:37:44.788Z,1149.00
2023-02-09T16:38:44.750Z,1149.00
2023-02-09T16:39:44.747Z,1145.00
2023-02-09T16:40:44.739Z,1145.00
2023-02-09T16:41:44.734Z,1142.00
2023-02-09T16:42:45.946Z,1141.00
2023-02-09T16:43:44.710Z,1136.00
2023-02-09T16:44:44.696Z,1124.00
2023-02-09T16:45:54.125Z,1121.00
2023-02-09T16:46:44.836Z,1118.00
2023-02-09T16:47:44.677Z,1111.00
2023-02-09T16:48:44.666Z,1112.00
2023-02-09T16:49:44.656Z,1110.00
2023-02-09T16:50:44.961Z,1107.00
2023-02-09T16:51:44.636Z,1103.00
2023-02-09T16:52:44.639Z,1102.00
2023-02-09T16:53:44.621Z,1102.00
2023-02-09T16:54:44.652Z,1103.00
2023-02-09T16:55:46.640Z,1100.00
2023-02-09T16:56:54.187Z,1094.00
2023-02-09T16:57:44.594Z,1089.00
2023-02-09T16:58:44.574Z,1086.00
2023-02-09T16:59:44.565Z,1084.00
2023-02-09T17:00:44.592Z,1081.00
2023-02-09T17:01:46.008Z,1078.00
2023-02-09T17:02:44.582Z,1071.00
2023-02-09T17:03:44.537Z,1067.00
2023-02-09T17:04:44.523Z,1067.00
2023-02-09T17:05:44.889Z,1066.00
2023-02-09T17:06:44.502Z,1065.00
2023-02-09T17:07:53.910Z,1066.00
2023-02-09T17:08:44.490Z,1063.00
2023-02-09T17:09:44.482Z,1062.00
2023-02-09T17:10:44.471Z,1058.00
2023-02-09T17:11:44.459Z,1058.00
2023-02-09T17:12:44.457Z,1057.00
2023-02-09T17:13:44.450Z,1055.00
2023-02-09T17:14:44.452Z,1052.00
2023-02-09T17:15:44.494Z,1046.00
2023-02-09T17:16:44.497Z,1025.00
2023-02-09T17:17:44.416Z,1032.00
2023-02-09T17:18:44.423Z,1035.00
2023-02-09T17:19:47.863Z,1033.00
2023-02-09T17:20:44.374Z,1031.00
2023-02-09T17:21:44.365Z,1026.00
2023-02-09T17:22:44.370Z,1023.00
2023-02-09T17:23:44.353Z,1022.00
2023-02-09T17:24:44.342Z,1019.00
2023-02-09T17:25:45.778Z,1018.00
2023-02-09T17:26:44.390Z,1015.00
2023-02-09T17:27:44.386Z,1013.00
2023-02-09T17:28:44.369Z,1012.00
2023-02-09T17:29:44.364Z,1011.00
2023-02-09T17:30:44.352Z,1010.00
2023-02-09T17:31:53.302Z,1006.00
2023-02-09T17:32:44.336Z,1004.00
2023-02-09T17:33:44.328Z,1004.00
2023-02-09T17:34:44.349Z,1001.00
2023-02-09T17:36:17.659Z,998.00
2023-02-09T17:36:44.297Z,994.00
2023-02-09T17:37:44.289Z,993.00
2023-02-09T17:38:44.299Z,989.00
2023-02-09T17:39:44.291Z,986.00
2023-02-09T17:40:44.268Z,985.00
2023-02-09T17:41:44.252Z,981.00
2023-02-09T17:42:44.245Z,978.00
2023-02-09T17:43:44.235Z,977.00
2023-02-09T17:44:46.703Z,970.00
2023-02-09T17:45:44.391Z,970.00
2023-02-09T17:46:44.205Z,971.00
2023-02-09T17:47:44.198Z,967.00
2023-02-09T17:48:44.191Z,967.00
2023-02-09T17:49:44.182Z,965.00
2023-02-09T17:50:44.194Z,957.00
2023-02-09T17:51:44.161Z,953.00
2023-02-09T17:52:44.172Z,953.00
2023-02-09T17:53:44.172Z,950.00
2023-02-09T17:54:44.139Z,947.00
2023-02-09T17:55:44.346Z,945.00
2023-02-09T17:56:44.125Z,940.00
2023-02-09T17:57:44.109Z,939.00
2023-02-09T17:58:44.101Z,938.00
2023-02-09T17:59:44.088Z,934.00
2023-02-09T18:00:44.082Z,933.00
2023-02-09T18:01:44.195Z,931.00
2023-02-09T18:02:44.104Z,929.00
2023-02-09T18:03:44.061Z,925.00
2023-02-09T18:04:44.071Z,924.00
2023-02-09T18:05:44.322Z,926.00
2023-02-09T18:06:44.057Z,924.00
2023-02-09T18:07:44.015Z,918.00
2023-02-09T18:11:43.987Z,907.00
2023-02-09T18:12:43.979Z,904.00
2023-02-09T18:14:43.959Z,898.00
2023-02-09T18:23:43.888Z,872.00
2023-02-09T18:24:43.865Z,877.00
2023-02-09T18:25:43.918Z,877.00
2023-02-09T18:33:44.954Z,862.00
2023-02-09T18:35:43.868Z,854.00
2023-02-09T18:37:45.636Z,846.00
2023-02-09T18:40:43.716Z,839.00
2023-02-09T18:48:43.656Z,827.00
2023-02-09T18:50:43.624Z,823.00
2023-02-09T18:56:43.565Z,812.00
2023-02-09T19:03:43.510Z,800.00
2023-02-09T19:06:43.484Z,795.00
2023-02-09T19:08:43.468Z,795.00
2023-02-09T19:13:43.416Z,782.00
2023-02-09T19:14:43.411Z,779.00
2023-02-09T19:19:43.385Z,770.00
2023-02-09T19:20:43.353Z,766.00
2023-02-09T19:21:43.349Z,766.00
2023-02-09T19:25:43.308Z,761.00
2023-02-09T19:31:43.254Z,753.00
2023-02-09T19:35:43.220Z,742.00
2023-02-09T19:50:43.092Z,722.00
2023-02-09T19:57:43.023Z,717.00
2023-02-09T20:00:43.006Z,712.00
2023-02-09T20:04:42.957Z,715.00
2023-02-09T20:05:42.973Z,715.00
2023-02-09T20:28:42.735Z,680.00
2023-02-09T20:29:42.727Z,678.00
2023-02-09T20:30:42.748Z,678.00
2023-02-09T20:31:42.727Z,673.00
2023-02-09T20:32:42.704Z,664.00
2023-02-09T20:33:42.689Z,666.00
2023-02-09T20:34:42.690Z,665.00
